sensor_id;sensor_type;location;lat;lon;timestamp;P1;durP1;ratioP1;P2;durP2;ratioP2
49310;SDS011;35177;45.900;5.946;2022-09-30T00:00:06;278.10;;;14.25;;
49310;SDS011;35177;45.900;5.946;2022-09-30T00:02:33;443.42;;;23.27;;
49310;SDS011;35177;45.900;5.946;2022-09-30T00:04:58;275.40;;;20.45;;
49310;SDS011;35177;45.900;5.946;2022-09-30T00:07:24;158.65;;;16.52;;
49310;SDS011;35177;45.900;5.946;2022-09-30T00:09:49;242.52;;;18.33;;
49310;SDS011;35177;45.900;5.946;2022-09-30T00:12:15;185.07;;;12.80;;
49310;SDS011;35177;45.900;5.946;2022-09-30T00:14:41;135.68;;;11.15;;
49310;SDS011;35177;45.900;5.946;2022-09-30T00:17:07;101.40;;;9.05;;
49310;SDS011;35177;45.900;5.946;2022-09-30T00:19:32;214.98;;;16.00;;
49310;SDS011;35177;45.900;5.946;2022-09-30T00:21:58;57.15;;;7.82;;
49310;SDS011;35177;45.900;5.946;2022-09-30T00:24:23;215.90;;;16.45;;
49310;SDS011;35177;45.900;5.946;2022-09-30T00:26:49;83.30;;;6.90;;
49310;SDS011;35177;45.900;5.946;2022-09-30T00:29:14;88.50;;;8.70;;
49310;SDS011;35177;45.900;5.946;2022-09-30T00:31:40;100.55;;;9.95;;
49310;SDS011;35177;45.900;5.946;2022-09-30T00:34:05;29.92;;;7.32;;
49310;SDS011;35177;45.900;5.946;2022-09-30T00:36:35;8.82;;;5.90;;
49310;SDS011;35177;45.900;5.946;2022-09-30T00:39:10;5.40;;;4.53;;
49310;SDS011;35177;45.900;5.946;2022-09-30T00:41:39;6.72;;;4.95;;
49310;SDS011;35177;45.900;5.946;2022-09-30T00:49:49;7.13;;;3.70;;
49310;SDS011;35177;45.900;5.946;2022-09-30T00:52:16;4.38;;;3.95;;
49310;SDS011;35177;45.900;5.946;2022-09-30T00:54:42;6.10;;;4.75;;
49310;SDS011;35177;45.900;5.946;2022-09-30T00:57:08;9.93;;;4.45;;
49310;SDS011;35177;45.900;5.946;2022-09-30T00:59:39;73.72;;;7.20;;
49310;SDS011;35177;45.900;5.946;2022-09-30T01:02:07;385.45;;;19.83;;
49310;SDS011;35177;45.900;5.946;2022-09-30T01:04:34;26.27;;;4.15;;
49310;SDS011;35177;45.900;5.946;2022-09-30T01:07:02;38.95;;;5.93;;
49310;SDS011;35177;45.900;5.946;2022-09-30T01:09:37;84.75;;;7.15;;
49310;SDS011;35177;45.900;5.946;2022-09-30T01:12:06;393.30;;;24.83;;
49310;SDS011;35177;45.900;5.946;2022-09-30T01:14:36;133.57;;;11.93;;
49310;SDS011;35177;45.900;5.946;2022-09-30T01:17:09;20.23;;;5.38;;
49310;SDS011;35177;45.900;5.946;2022-09-30T01:31:21;323.70;;;18.10;;
49310;SDS011;35177;45.900;5.946;2022-09-30T01:42:02;376.52;;;27.58;;
49310;SDS011;35177;45.900;5.946;2022-09-30T01:44:48;668.03;;;49.63;;
49310;SDS011;35177;45.900;5.946;2022-09-30T01:47:53;1014.03;;;76.47;;
49310;SDS011;35177;45.900;5.946;2022-09-30T01:50:48;684.28;;;38.75;;
49310;SDS011;35177;45.900;5.946;2022-09-30T01:53:22;191.82;;;15.65;;
49310;SDS011;35177;45.900;5.946;2022-09-30T01:55:53;264.35;;;20.60;;
49310;SDS011;35177;45.900;5.946;2022-09-30T01:58:56;449.17;;;27.00;;
49310;SDS011;35177;45.900;5.946;2022-09-30T02:01:23;373.67;;;27.75;;
49310;SDS011;35177;45.900;5.946;2022-09-30T02:03:56;247.90;;;16.33;;
49310;SDS011;35177;45.900;5.946;2022-09-30T02:06:34;59.45;;;6.97;;
49310;SDS011;35177;45.900;5.946;2022-09-30T02:09:24;47.53;;;8.38;;
49310;SDS011;35177;45.900;5.946;2022-09-30T02:11:54;119.95;;;10.93;;
49310;SDS011;35177;45.900;5.946;2022-09-30T02:14:27;126.75;;;10.90;;
49310;SDS011;35177;45.900;5.946;2022-09-30T02:16:58;80.00;;;8.82;;
49310;SDS011;35177;45.900;5.946;2022-09-30T02:19:37;66.40;;;8.43;;
49310;SDS011;35177;45.900;5.946;2022-09-30T02:22:18;77.18;;;10.95;;
49310;SDS011;35177;45.900;5.946;2022-09-30T02:24:49;24.70;;;6.15;;
49310;SDS011;35177;45.900;5.946;2022-09-30T02:27:23;24.45;;;6.40;;
49310;SDS011;35177;45.900;5.946;2022-09-30T02:29:57;68.75;;;7.47;;
49310;SDS011;35177;45.900;5.946;2022-09-30T02:32:32;121.70;;;9.13;;
49310;SDS011;35177;45.900;5.946;2022-09-30T02:35:06;62.88;;;7.28;;
49310;SDS011;35177;45.900;5.946;2022-09-30T02:37:40;28.17;;;5.18;;
49310;SDS011;35177;45.900;5.946;2022-09-30T02:40:30;6.25;;;4.00;;
49310;SDS011;35177;45.900;5.946;2022-09-30T02:43:00;5.70;;;4.13;;
49310;SDS011;35177;45.900;5.946;2022-09-30T02:45:27;5.78;;;4.10;;
49310;SDS011;35177;45.900;5.946;2022-09-30T02:58:32;59.10;;;6.63;;
49310;SDS011;35177;45.900;5.946;2022-09-30T03:01:00;90.60;;;8.57;;
49310;SDS011;35177;45.900;5.946;2022-09-30T03:06:05;28.38;;;5.35;;
49310;SDS011;35177;45.900;5.946;2022-09-30T03:08:31;13.55;;;4.78;;
49310;SDS011;35177;45.900;5.946;2022-09-30T03:10:56;108.60;;;8.35;;
49310;SDS011;35177;45.900;5.946;2022-09-30T03:19:04;9.60;;;6.05;;
49310;SDS011;35177;45.900;5.946;2022-09-30T03:40:02;9.48;;;7.15;;
49310;SDS011;35177;45.900;5.946;2022-09-30T03:45:07;11.50;;;6.38;;
49310;SDS011;35177;45.900;5.946;2022-09-30T03:47:45;6.43;;;5.65;;
49310;SDS011;35177;45.900;5.946;2022-09-30T03:50:14;7.82;;;5.55;;
49310;SDS011;35177;45.900;5.946;2022-09-30T03:52:43;7.50;;;5.72;;
49310;SDS011;35177;45.900;5.946;2022-09-30T03:55:09;20.98;;;7.00;;
49310;SDS011;35177;45.900;5.946;2022-09-30T03:57:35;17.92;;;6.93;;
49310;SDS011;35177;45.900;5.946;2022-09-30T04:00:02;14.77;;;6.97;;
49310;SDS011;35177;45.900;5.946;2022-09-30T04:02:29;29.27;;;8.15;;
49310;SDS011;35177;45.900;5.946;2022-09-30T04:04:54;7.95;;;6.82;;
49310;SDS011;35177;45.900;5.946;2022-09-30T04:07:20;28.67;;;8.18;;
49310;SDS011;35177;45.900;5.946;2022-09-30T04:09:46;21.92;;;7.30;;
49310;SDS011;35177;45.900;5.946;2022-09-30T04:12:11;47.80;;;14.98;;
49310;SDS011;35177;45.900;5.946;2022-09-30T04:14:37;44.63;;;8.55;;
49310;SDS011;35177;45.900;5.946;2022-09-30T04:17:03;18.33;;;7.70;;
49310;SDS011;35177;45.900;5.946;2022-09-30T04:19:29;12.73;;;6.30;;
49310;SDS011;35177;45.900;5.946;2022-09-30T04:21:55;9.43;;;6.45;;
49310;SDS011;35177;45.900;5.946;2022-09-30T04:24:21;10.63;;;6.95;;
49310;SDS011;35177;45.900;5.946;2022-09-30T04:26:48;13.15;;;6.28;;
49310;SDS011;35177;45.900;5.946;2022-09-30T04:29:14;9.35;;;5.90;;
49310;SDS011;35177;45.900;5.946;2022-09-30T04:31:39;7.70;;;5.70;;
49310;SDS011;35177;45.900;5.946;2022-09-30T04:34:05;6.53;;;5.60;;
49310;SDS011;35177;45.900;5.946;2022-09-30T04:36:31;7.57;;;5.18;;
49310;SDS011;35177;45.900;5.946;2022-09-30T04:38:56;7.65;;;5.85;;
49310;SDS011;35177;45.900;5.946;2022-09-30T04:41:22;17.70;;;6.07;;
49310;SDS011;35177;45.900;5.946;2022-09-30T04:43:49;27.20;;;5.55;;
49310;SDS011;35177;45.900;5.946;2022-09-30T04:46:15;56.38;;;6.65;;
49310;SDS011;35177;45.900;5.946;2022-09-30T04:48:42;8.93;;;6.22;;
49310;SDS011;35177;45.900;5.946;2022-09-30T04:51:12;47.58;;;6.82;;
49310;SDS011;35177;45.900;5.946;2022-09-30T04:53:42;84.05;;;10.52;;
49310;SDS011;35177;45.900;5.946;2022-09-30T04:56:08;71.22;;;10.00;;
49310;SDS011;35177;45.900;5.946;2022-09-30T04:58:34;52.63;;;9.50;;
49310;SDS011;35177;45.900;5.946;2022-09-30T05:01:04;23.63;;;6.95;;
49310;SDS011;35177;45.900;5.946;2022-09-30T05:03:31;10.27;;;6.88;;
49310;SDS011;35177;45.900;5.946;2022-09-30T05:05:56;14.07;;;7.82;;
49310;SDS011;35177;45.900;5.946;2022-09-30T05:08:22;10.40;;;7.68;;
49310;SDS011;35177;45.900;5.946;2022-09-30T05:10:54;12.32;;;7.65;;
49310;SDS011;35177;45.900;5.946;2022-09-30T05:13:24;10.57;;;7.30;;
49310;SDS011;35177;45.900;5.946;2022-09-30T05:15:54;16.92;;;7.63;;
49310;SDS011;35177;45.900;5.946;2022-09-30T05:18:20;11.10;;;7.10;;
49310;SDS011;35177;45.900;5.946;2022-09-30T05:20:49;9.90;;;6.60;;
49310;SDS011;35177;45.900;5.946;2022-09-30T05:23:16;10.07;;;6.45;;
49310;SDS011;35177;45.900;5.946;2022-09-30T05:25:42;40.83;;;36.35;;
49310;SDS011;35177;45.900;5.946;2022-09-30T05:28:08;23.15;;;20.55;;
49310;SDS011;35177;45.900;5.946;2022-09-30T05:30:34;17.75;;;15.60;;
49310;SDS011;35177;45.900;5.946;2022-09-30T05:32:59;19.48;;;17.48;;
49310;SDS011;35177;45.900;5.946;2022-09-30T05:35:25;9.30;;;8.07;;
49310;SDS011;35177;45.900;5.946;2022-09-30T05:37:50;7.22;;;6.53;;
49310;SDS011;35177;45.900;5.946;2022-09-30T05:40:15;8.98;;;6.00;;
49310;SDS011;35177;45.900;5.946;2022-09-30T05:42:41;16.20;;;5.93;;
49310;SDS011;35177;45.900;5.946;2022-09-30T05:45:09;21.33;;;6.00;;
49310;SDS011;35177;45.900;5.946;2022-09-30T05:47:35;6.72;;;5.85;;
49310;SDS011;35177;45.900;5.946;2022-09-30T05:50:00;8.55;;;5.95;;
49310;SDS011;35177;45.900;5.946;2022-09-30T05:52:26;9.13;;;6.25;;
49310;SDS011;35177;45.900;5.946;2022-09-30T05:54:52;7.30;;;5.63;;
49310;SDS011;35177;45.900;5.946;2022-09-30T05:57:18;7.15;;;5.97;;
49310;SDS011;35177;45.900;5.946;2022-09-30T05:59:45;7.78;;;6.10;;
49310;SDS011;35177;45.900;5.946;2022-09-30T06:02:11;7.22;;;5.45;;
49310;SDS011;35177;45.900;5.946;2022-09-30T06:04:37;8.45;;;5.78;;
49310;SDS011;35177;45.900;5.946;2022-09-30T06:07:02;7.68;;;5.47;;
49310;SDS011;35177;45.900;5.946;2022-09-30T06:09:28;10.48;;;5.97;;
49310;SDS011;35177;45.900;5.946;2022-09-30T06:11:53;7.45;;;5.60;;
49310;SDS011;35177;45.900;5.946;2022-09-30T06:14:22;11.48;;;6.25;;
49310;SDS011;35177;45.900;5.946;2022-09-30T06:16:48;9.05;;;6.35;;
49310;SDS011;35177;45.900;5.946;2022-09-30T06:19:13;7.78;;;6.03;;
49310;SDS011;35177;45.900;5.946;2022-09-30T06:21:39;7.97;;;6.28;;
49310;SDS011;35177;45.900;5.946;2022-09-30T06:24:05;10.32;;;6.45;;
49310;SDS011;35177;45.900;5.946;2022-09-30T06:26:32;9.63;;;6.45;;
49310;SDS011;35177;45.900;5.946;2022-09-30T06:28:58;9.23;;;6.57;;
49310;SDS011;35177;45.900;5.946;2022-09-30T06:31:23;8.95;;;6.80;;
49310;SDS011;35177;45.900;5.946;2022-09-30T06:33:51;6.30;;;5.70;;
49310;SDS011;35177;45.900;5.946;2022-09-30T06:36:17;9.27;;;6.50;;
49310;SDS011;35177;45.900;5.946;2022-09-30T06:38:42;10.35;;;6.60;;
49310;SDS011;35177;45.900;5.946;2022-09-30T06:41:09;7.85;;;6.10;;
49310;SDS011;35177;45.900;5.946;2022-09-30T06:43:35;9.65;;;5.80;;
49310;SDS011;35177;45.900;5.946;2022-09-30T06:46:00;6.50;;;5.72;;
49310;SDS011;35177;45.900;5.946;2022-09-30T06:48:26;7.20;;;5.63;;
49310;SDS011;35177;45.900;5.946;2022-09-30T06:50:56;8.88;;;5.68;;
49310;SDS011;35177;45.900;5.946;2022-09-30T06:53:22;6.32;;;4.93;;
49310;SDS011;35177;45.900;5.946;2022-09-30T06:55:48;6.25;;;5.05;;
49310;SDS011;35177;45.900;5.946;2022-09-30T06:58:19;6.47;;;4.30;;
49310;SDS011;35177;45.900;5.946;2022-09-30T07:00:51;8.02;;;5.15;;
49310;SDS011;35177;45.900;5.946;2022-09-30T07:03:22;7.70;;;4.95;;
49310;SDS011;35177;45.900;5.946;2022-09-30T07:05:56;5.97;;;5.10;;
49310;SDS011;35177;45.900;5.946;2022-09-30T07:08:23;6.82;;;5.30;;
49310;SDS011;35177;45.900;5.946;2022-09-30T07:10:50;6.80;;;5.13;;
49310;SDS011;35177;45.900;5.946;2022-09-30T07:13:17;7.10;;;5.38;;
49310;SDS011;35177;45.900;5.946;2022-09-30T07:15:42;6.30;;;5.50;;
49310;SDS011;35177;45.900;5.946;2022-09-30T07:18:08;10.80;;;5.80;;
49310;SDS011;35177;45.900;5.946;2022-09-30T07:20:34;7.32;;;5.07;;
49310;SDS011;35177;45.900;5.946;2022-09-30T07:22:59;8.88;;;5.97;;
49310;SDS011;35177;45.900;5.946;2022-09-30T07:25:26;8.73;;;5.80;;
49310;SDS011;35177;45.900;5.946;2022-09-30T07:27:51;7.45;;;5.88;;
49310;SDS011;35177;45.900;5.946;2022-09-30T07:30:18;6.47;;;5.40;;
49310;SDS011;35177;45.900;5.946;2022-09-30T07:32:44;6.28;;;5.43;;
49310;SDS011;35177;45.900;5.946;2022-09-30T07:35:10;7.60;;;5.88;;
49310;SDS011;35177;45.900;5.946;2022-09-30T07:37:35;8.55;;;5.97;;
49310;SDS011;35177;45.900;5.946;2022-09-30T07:40:02;6.45;;;5.13;;
49310;SDS011;35177;45.900;5.946;2022-09-30T07:42:30;7.75;;;5.38;;
49310;SDS011;35177;45.900;5.946;2022-09-30T07:44:56;9.82;;;6.05;;
49310;SDS011;35177;45.900;5.946;2022-09-30T07:47:21;7.57;;;6.05;;
49310;SDS011;35177;45.900;5.946;2022-09-30T07:49:47;12.32;;;6.28;;
49310;SDS011;35177;45.900;5.946;2022-09-30T07:52:13;13.45;;;6.20;;
49310;SDS011;35177;45.900;5.946;2022-09-30T07:54:39;9.15;;;5.97;;
49310;SDS011;35177;45.900;5.946;2022-09-30T07:57:06;8.18;;;5.65;;
49310;SDS011;35177;45.900;5.946;2022-09-30T07:59:33;6.75;;;5.30;;
49310;SDS011;35177;45.900;5.946;2022-09-30T08:02:01;6.70;;;5.38;;
49310;SDS011;35177;45.900;5.946;2022-09-30T08:04:28;6.43;;;5.20;;
49310;SDS011;35177;45.900;5.946;2022-09-30T08:06:56;6.18;;;5.03;;
49310;SDS011;35177;45.900;5.946;2022-09-30T08:09:25;6.20;;;4.78;;
49310;SDS011;35177;45.900;5.946;2022-09-30T08:11:52;5.53;;;4.97;;
49310;SDS011;35177;45.900;5.946;2022-09-30T08:14:19;5.93;;;5.10;;
49310;SDS011;35177;45.900;5.946;2022-09-30T08:16:46;6.18;;;5.20;;
49310;SDS011;35177;45.900;5.946;2022-09-30T08:19:14;4.80;;;4.10;;
49310;SDS011;35177;45.900;5.946;2022-09-30T08:21:44;7.13;;;5.55;;
49310;SDS011;35177;45.900;5.946;2022-09-30T08:24:10;8.40;;;5.40;;
49310;SDS011;35177;45.900;5.946;2022-09-30T08:26:36;6.30;;;5.20;;
49310;SDS011;35177;45.900;5.946;2022-09-30T08:29:02;6.47;;;4.70;;
49310;SDS011;35177;45.900;5.946;2022-09-30T08:31:28;4.63;;;4.15;;
49310;SDS011;35177;45.900;5.946;2022-09-30T08:33:54;5.40;;;4.45;;
49310;SDS011;35177;45.900;5.946;2022-09-30T08:36:20;5.38;;;4.55;;
49310;SDS011;35177;45.900;5.946;2022-09-30T08:38:48;4.97;;;4.30;;
49310;SDS011;35177;45.900;5.946;2022-09-30T08:52:14;7.50;;;5.43;;
49310;SDS011;35177;45.900;5.946;2022-09-30T08:54:49;6.88;;;5.15;;
49310;SDS011;35177;45.900;5.946;2022-09-30T08:57:16;6.22;;;5.07;;
49310;SDS011;35177;45.900;5.946;2022-09-30T08:59:44;6.07;;;5.28;;
49310;SDS011;35177;45.900;5.946;2022-09-30T09:02:26;4.60;;;4.00;;
49310;SDS011;35177;45.900;5.946;2022-09-30T09:04:57;4.88;;;4.40;;
49310;SDS011;35177;45.900;5.946;2022-09-30T09:07:39;7.10;;;4.82;;
49310;SDS011;35177;45.900;5.946;2022-09-30T09:13:15;5.07;;;4.57;;
49310;SDS011;35177;45.900;5.946;2022-09-30T09:16:02;8.90;;;4.80;;
49310;SDS011;35177;45.900;5.946;2022-09-30T09:19:14;12.90;;;5.45;;
49310;SDS011;35177;45.900;5.946;2022-09-30T09:24:11;6.80;;;4.63;;
49310;SDS011;35177;45.900;5.946;2022-09-30T09:26:40;5.43;;;4.75;;
49310;SDS011;35177;45.900;5.946;2022-09-30T09:31:47;6.25;;;5.63;;
49310;SDS011;35177;45.900;5.946;2022-09-30T09:34:13;5.43;;;4.82;;
49310;SDS011;35177;45.900;5.946;2022-09-30T09:39:52;5.32;;;4.82;;
49310;SDS011;35177;45.900;5.946;2022-09-30T09:45:14;5.70;;;4.35;;
49310;SDS011;35177;45.900;5.946;2022-09-30T09:47:52;5.45;;;4.93;;
49310;SDS011;35177;45.900;5.946;2022-09-30T09:51:20;5.13;;;4.50;;
49310;SDS011;35177;45.900;5.946;2022-09-30T09:56:21;4.72;;;4.25;;
49310;SDS011;35177;45.900;5.946;2022-09-30T10:01:49;5.90;;;4.10;;
49310;SDS011;35177;45.900;5.946;2022-09-30T10:04:26;4.43;;;3.72;;
49310;SDS011;35177;45.900;5.946;2022-09-30T10:07:13;7.93;;;4.00;;
49310;SDS011;35177;45.900;5.946;2022-09-30T10:09:40;7.07;;;4.30;;
49310;SDS011;35177;45.900;5.946;2022-09-30T10:17:20;7.05;;;4.13;;
49310;SDS011;35177;45.900;5.946;2022-09-30T10:19:51;5.00;;;3.30;;
49310;SDS011;35177;45.900;5.946;2022-09-30T10:22:22;3.25;;;2.95;;
49310;SDS011;35177;45.900;5.946;2022-09-30T10:24:50;4.68;;;3.38;;
49310;SDS011;35177;45.900;5.946;2022-09-30T10:27:30;6.22;;;3.78;;
49310;SDS011;35177;45.900;5.946;2022-09-30T10:29:58;4.40;;;4.00;;
49310;SDS011;35177;45.900;5.946;2022-09-30T10:32:24;10.20;;;3.80;;
49310;SDS011;35177;45.900;5.946;2022-09-30T10:34:55;5.90;;;3.80;;
49310;SDS011;35177;45.900;5.946;2022-09-30T10:37:28;3.92;;;3.13;;
49310;SDS011;35177;45.900;5.946;2022-09-30T10:40:27;2.65;;;2.45;;
49310;SDS011;35177;45.900;5.946;2022-09-30T10:42:51;2.40;;;2.20;;
49310;SDS011;35177;45.900;5.946;2022-09-30T10:47:54;3.83;;;2.60;;
49310;SDS011;35177;45.900;5.946;2022-09-30T10:50:21;2.42;;;1.95;;
49310;SDS011;35177;45.900;5.946;2022-09-30T10:53:03;2.30;;;2.10;;
49310;SDS011;35177;45.900;5.946;2022-09-30T10:55:45;2.40;;;2.20;;
49310;SDS011;35177;45.900;5.946;2022-09-30T10:58:23;4.22;;;2.50;;
49310;SDS011;35177;45.900;5.946;2022-09-30T11:00:58;4.35;;;2.83;;
49310;SDS011;35177;45.900;5.946;2022-09-30T11:06:40;5.90;;;2.47;;
49310;SDS011;35177;45.900;5.946;2022-09-30T11:09:11;3.90;;;2.70;;
49310;SDS011;35177;45.900;5.946;2022-09-30T11:11:47;2.35;;;2.15;;
49310;SDS011;35177;45.900;5.946;2022-09-30T11:14:24;2.20;;;2.00;;
49310;SDS011;35177;45.900;5.946;2022-09-30T11:17:09;4.32;;;2.38;;
49310;SDS011;35177;45.900;5.946;2022-09-30T11:24:51;4.18;;;2.00;;
49310;SDS011;35177;45.900;5.946;2022-09-30T11:41:29;1.63;;;1.35;;
49310;SDS011;35177;45.900;5.946;2022-09-30T11:44:05;4.32;;;1.45;;
49310;SDS011;35177;45.900;5.946;2022-09-30T11:57:49;1.20;;;1.02;;
49310;SDS011;35177;45.900;5.946;2022-09-30T12:00:22;4.78;;;1.30;;
49310;SDS011;35177;45.900;5.946;2022-09-30T12:03:04;2.22;;;1.10;;
49310;SDS011;35177;45.900;5.946;2022-09-30T12:05:40;3.28;;;1.30;;
49310;SDS011;35177;45.900;5.946;2022-09-30T12:10:49;1.75;;;1.23;;
49310;SDS011;35177;45.900;5.946;2022-09-30T12:13:39;3.25;;;1.20;;
49310;SDS011;35177;45.900;5.946;2022-09-30T12:16:15;1.42;;;1.15;;
49310;SDS011;35177;45.900;5.946;2022-09-30T12:19:08;1.23;;;1.00;;
49310;SDS011;35177;45.900;5.946;2022-09-30T12:21:43;1.88;;;1.05;;
49310;SDS011;35177;45.900;5.946;2022-09-30T12:24:16;1.25;;;0.93;;
49310;SDS011;35177;45.900;5.946;2022-09-30T12:26:49;1.02;;;0.95;;
49310;SDS011;35177;45.900;5.946;2022-09-30T12:48:41;2.50;;;2.00;;
49310;SDS011;35177;45.900;5.946;2022-09-30T12:51:23;1.77;;;1.60;;
49310;SDS011;35177;45.900;5.946;2022-09-30T12:54:01;2.67;;;1.80;;
49310;SDS011;35177;45.900;5.946;2022-09-30T12:56:34;2.70;;;1.70;;
49310;SDS011;35177;45.900;5.946;2022-09-30T12:59:01;2.58;;;1.58;;
49310;SDS011;35177;45.900;5.946;2022-09-30T13:01:28;3.35;;;2.05;;
49310;SDS011;35177;45.900;5.946;2022-09-30T13:06:25;3.25;;;1.80;;
49310;SDS011;35177;45.900;5.946;2022-09-30T13:11:41;3.65;;;1.85;;
49310;SDS011;35177;45.900;5.946;2022-09-30T13:19:29;1.60;;;1.30;;
49310;SDS011;35177;45.900;5.946;2022-09-30T13:32:43;2.00;;;1.30;;
49310;SDS011;35177;45.900;5.946;2022-09-30T13:40:51;1.40;;;0.90;;
49310;SDS011;35177;45.900;5.946;2022-09-30T13:43:25;1.38;;;1.10;;
49310;SDS011;35177;45.900;5.946;2022-09-30T13:48:47;1.58;;;0.90;;
49310;SDS011;35177;45.900;5.946;2022-09-30T13:51:19;2.15;;;1.05;;
49310;SDS011;35177;45.900;5.946;2022-09-30T13:53:52;2.85;;;1.10;;
49310;SDS011;35177;45.900;5.946;2022-09-30T13:56:26;3.08;;;1.13;;
49310;SDS011;35177;45.900;5.946;2022-09-30T14:16:15;1.80;;;1.00;;
49310;SDS011;35177;45.900;5.946;2022-09-30T14:19:07;1.35;;;0.90;;
49310;SDS011;35177;45.900;5.946;2022-09-30T14:21:55;2.83;;;1.38;;
49310;SDS011;35177;45.900;5.946;2022-09-30T14:24:24;1.73;;;1.30;;
49310;SDS011;35177;45.900;5.946;2022-09-30T14:32:45;2.95;;;1.10;;
49310;SDS011;35177;45.900;5.946;2022-09-30T14:35:13;1.57;;;0.97;;
49310;SDS011;35177;45.900;5.946;2022-09-30T14:40:33;1.45;;;1.20;;
49310;SDS011;35177;45.900;5.946;2022-09-30T14:43:03;0.70;;;0.70;;
49310;SDS011;35177;45.900;5.946;2022-09-30T14:45:32;1.98;;;0.90;;
49310;SDS011;35177;45.900;5.946;2022-09-30T14:48:04;3.15;;;1.23;;
49310;SDS011;35177;45.900;5.946;2022-09-30T14:50:35;4.68;;;1.02;;
49310;SDS011;35177;45.900;5.946;2022-09-30T14:53:22;1.98;;;0.93;;
49310;SDS011;35177;45.900;5.946;2022-09-30T14:55:49;2.55;;;0.88;;
49310;SDS011;35177;45.900;5.946;2022-09-30T14:58:22;1.88;;;0.85;;
49310;SDS011;35177;45.900;5.946;2022-09-30T15:01:00;3.25;;;0.85;;
49310;SDS011;35177;45.900;5.946;2022-09-30T15:03:29;2.15;;;1.30;;
49310;SDS011;35177;45.900;5.946;2022-09-30T15:05:59;2.80;;;1.17;;
49310;SDS011;35177;45.900;5.946;2022-09-30T15:08:24;2.08;;;1.50;;
49310;SDS011;35177;45.900;5.946;2022-09-30T15:10:52;1.27;;;1.17;;
49310;SDS011;35177;45.900;5.946;2022-09-30T15:13:23;4.15;;;1.30;;
49310;SDS011;35177;45.900;5.946;2022-09-30T15:15:52;2.25;;;1.35;;
49310;SDS011;35177;45.900;5.946;2022-09-30T15:18:39;2.50;;;1.35;;
49310;SDS011;35177;45.900;5.946;2022-09-30T15:21:12;1.20;;;1.00;;
49310;SDS011;35177;45.900;5.946;2022-09-30T15:23:46;1.85;;;1.25;;
49310;SDS011;35177;45.900;5.946;2022-09-30T15:26:20;2.75;;;1.20;;
49310;SDS011;35177;45.900;5.946;2022-09-30T15:28:48;1.67;;;1.30;;
49310;SDS011;35177;45.900;5.946;2022-09-30T15:31:23;0.80;;;0.80;;
49310;SDS011;35177;45.900;5.946;2022-09-30T15:36:55;2.78;;;1.30;;
49310;SDS011;35177;45.900;5.946;2022-09-30T15:39:24;62.63;;;50.30;;
49310;SDS011;35177;45.900;5.946;2022-09-30T15:42:13;2.25;;;1.70;;
49310;SDS011;35177;45.900;5.946;2022-09-30T15:44:54;42.03;;;23.63;;
49310;SDS011;35177;45.900;5.946;2022-09-30T15:47:24;4.47;;;2.65;;
49310;SDS011;35177;45.900;5.946;2022-09-30T15:49:51;4.35;;;2.90;;
49310;SDS011;35177;45.900;5.946;2022-09-30T15:52:25;7.57;;;3.42;;
49310;SDS011;35177;45.900;5.946;2022-09-30T15:54:55;4.32;;;3.10;;
49310;SDS011;35177;45.900;5.946;2022-09-30T15:57:43;4.97;;;3.22;;
49310;SDS011;35177;45.900;5.946;2022-09-30T16:03:05;6.63;;;5.20;;
49310;SDS011;35177;45.900;5.946;2022-09-30T16:05:46;6.57;;;3.30;;
49310;SDS011;35177;45.900;5.946;2022-09-30T16:08:19;5.50;;;3.45;;
49310;SDS011;35177;45.900;5.946;2022-09-30T16:10:54;5.85;;;3.80;;
49310;SDS011;35177;45.900;5.946;2022-09-30T16:13:23;5.32;;;3.75;;
49310;SDS011;35177;45.900;5.946;2022-09-30T16:15:54;5.20;;;4.18;;
49310;SDS011;35177;45.900;5.946;2022-09-30T16:18:23;4.82;;;3.78;;
49310;SDS011;35177;45.900;5.946;2022-09-30T16:20:57;6.97;;;3.70;;
49310;SDS011;35177;45.900;5.946;2022-09-30T16:23:29;7.38;;;4.00;;
49310;SDS011;35177;45.900;5.946;2022-09-30T16:26:12;5.28;;;4.38;;
49310;SDS011;35177;45.900;5.946;2022-09-30T16:28:45;4.40;;;3.67;;
49310;SDS011;35177;45.900;5.946;2022-09-30T16:31:10;11.05;;;5.13;;
49310;SDS011;35177;45.900;5.946;2022-09-30T16:33:39;6.80;;;4.13;;
49310;SDS011;35177;45.900;5.946;2022-09-30T16:36:07;6.38;;;4.82;;
49310;SDS011;35177;45.900;5.946;2022-09-30T16:38:33;6.97;;;4.15;;
49310;SDS011;35177;45.900;5.946;2022-09-30T16:41:00;7.63;;;5.28;;
49310;SDS011;35177;45.900;5.946;2022-09-30T16:43:28;8.57;;;4.88;;
49310;SDS011;35177;45.900;5.946;2022-09-30T16:45:55;8.23;;;4.75;;
49310;SDS011;35177;45.900;5.946;2022-09-30T16:48:24;17.42;;;15.18;;
49310;SDS011;35177;45.900;5.946;2022-09-30T16:51:03;22.65;;;19.52;;
49310;SDS011;35177;45.900;5.946;2022-09-30T16:53:31;13.05;;;9.35;;
49310;SDS011;35177;45.900;5.946;2022-09-30T16:55:57;19.30;;;14.95;;
49310;SDS011;35177;45.900;5.946;2022-09-30T16:58:23;25.58;;;19.77;;
49310;SDS011;35177;45.900;5.946;2022-09-30T17:00:49;34.58;;;24.95;;
49310;SDS011;35177;45.900;5.946;2022-09-30T17:03:15;9.38;;;5.45;;
49310;SDS011;35177;45.900;5.946;2022-09-30T17:05:42;8.20;;;5.50;;
49310;SDS011;35177;45.900;5.946;2022-09-30T17:08:13;26.52;;;18.40;;
49310;SDS011;35177;45.900;5.946;2022-09-30T17:10:43;21.50;;;15.18;;
49310;SDS011;35177;45.900;5.946;2022-09-30T17:13:11;25.10;;;19.48;;
49310;SDS011;35177;45.900;5.946;2022-09-30T17:15:40;56.50;;;43.15;;
49310;SDS011;35177;45.900;5.946;2022-09-30T17:18:07;13.63;;;10.35;;
49310;SDS011;35177;45.900;5.946;2022-09-30T17:20:34;13.35;;;9.98;;
49310;SDS011;35177;45.900;5.946;2022-09-30T17:23:00;10.23;;;8.98;;
49310;SDS011;35177;45.900;5.946;2022-09-30T17:25:26;12.75;;;7.30;;
49310;SDS011;35177;45.900;5.946;2022-09-30T17:27:51;10.93;;;7.47;;
49310;SDS011;35177;45.900;5.946;2022-09-30T17:30:17;7.85;;;5.22;;
49310;SDS011;35177;45.900;5.946;2022-09-30T17:32:43;7.50;;;5.40;;
49310;SDS011;35177;45.900;5.946;2022-09-30T17:35:09;17.55;;;9.57;;
49310;SDS011;35177;45.900;5.946;2022-09-30T17:37:35;29.40;;;14.60;;
49310;SDS011;35177;45.900;5.946;2022-09-30T17:40:01;22.20;;;12.38;;
49310;SDS011;35177;45.900;5.946;2022-09-30T17:42:47;11.25;;;7.05;;
49310;SDS011;35177;45.900;5.946;2022-09-30T17:45:31;10.63;;;5.60;;
49310;SDS011;35177;45.900;5.946;2022-09-30T17:47:57;6.53;;;5.28;;
49310;SDS011;35177;45.900;5.946;2022-09-30T17:50:23;7.28;;;5.22;;
49310;SDS011;35177;45.900;5.946;2022-09-30T17:52:48;10.43;;;5.43;;
49310;SDS011;35177;45.900;5.946;2022-09-30T17:55:14;7.97;;;6.18;;
49310;SDS011;35177;45.900;5.946;2022-09-30T17:57:39;8.68;;;5.97;;
49310;SDS011;35177;45.900;5.946;2022-09-30T18:00:05;8.40;;;6.47;;
49310;SDS011;35177;45.900;5.946;2022-09-30T18:02:31;11.57;;;7.32;;
49310;SDS011;35177;45.900;5.946;2022-09-30T18:04:57;11.07;;;5.95;;
49310;SDS011;35177;45.900;5.946;2022-09-30T18:07:23;9.20;;;6.70;;
49310;SDS011;35177;45.900;5.946;2022-09-30T18:09:49;11.23;;;6.03;;
49310;SDS011;35177;45.900;5.946;2022-09-30T18:12:15;10.27;;;6.65;;
49310;SDS011;35177;45.900;5.946;2022-09-30T18:14:40;9.60;;;7.45;;
49310;SDS011;35177;45.900;5.946;2022-09-30T18:17:08;16.08;;;6.95;;
49310;SDS011;35177;45.900;5.946;2022-09-30T18:19:33;10.00;;;7.15;;
49310;SDS011;35177;45.900;5.946;2022-09-30T18:21:59;7.93;;;7.13;;
49310;SDS011;35177;45.900;5.946;2022-09-30T18:24:25;8.50;;;7.47;;
49310;SDS011;35177;45.900;5.946;2022-09-30T18:27:09;9.15;;;6.90;;
49310;SDS011;35177;45.900;5.946;2022-09-30T18:29:35;11.55;;;8.75;;
49310;SDS011;35177;45.900;5.946;2022-09-30T18:32:01;14.48;;;9.95;;
49310;SDS011;35177;45.900;5.946;2022-09-30T18:34:26;16.80;;;10.10;;
49310;SDS011;35177;45.900;5.946;2022-09-30T18:36:52;30.48;;;21.42;;
49310;SDS011;35177;45.900;5.946;2022-09-30T18:39:17;20.70;;;14.68;;